MNL weather

Ninoy Aquino International Airport
Manila, Philippines

Public forecast

Using degrees Celsius for public forecast. Weather courtesy of forecast.io.

METAR (pilot weather report)

Retrieved 2017/10/19 11:00 UTC (43 minutes ago):

RPLL 191100Z 22003KT 190V250 9999 FEW023 OVC100 28/25 Q1004 NOSIG RMK A2965

TAF (pilot weather forecast)

Retrieved 2017/10/19 06:00 UTC (6 hours ago):

TAF RPLL 190500Z 1906/2012 26005KT 9999 FEW023 SCT100 BKN300 TX32/1906Z TN26/1921Z TEMPO 1906/1912 27009KT 9000 -SHRA FEW022CB FEW023 OVC100 TEMPO 1912/1918 VRB02KT SCT023 BKN100